Time;durP1;ratioP1;P1;durP2;ratioP2;P2;SDS_P1;SDS_P2;PMS_P1;PMS_P2;Temp;Humidity;BMP_temperature;BMP_pressure;BME280_temperature;BME280_humidity;BME280_pressure;Samples;Min_cycle;Max_cycle;Signal;HPM_P1;HPM_P2
2022/05/19 00:02:21;;;;;;;0.13;0.13;;;;;;;12.79;65.40;101557.09;4928182;29;20238;-71
2022/05/19 00:04:47;;;;;;;0.10;0.10;;;;;;;12.77;67.60;101556.25;4928293;29;20203;-71
2022/05/19 00:07:14;;;;;;;0.00;0.00;;;;;;;12.73;66.48;101557.19;4930667;29;20212;-71
2022/05/19 00:09:41;;;;;;;0.10;0.10;;;;;;;12.70;65.47;101557.28;4930187;29;20233;-71
2022/05/19 00:12:16;;;;;;;0.10;0.10;;;;;;;12.64;66.02;101550.38;4928717;29;20206;-70
2022/05/19 00:14:42;;;;;;;0.03;0.03;;;;;;;12.63;66.96;101546.06;4926206;29;20216;-71
2022/05/19 00:17:10;;;;;;;0.20;0.20;;;;;;;12.64;70.13;101554.78;4929405;29;20214;-71
2022/05/19 00:19:36;;;;;;;0.10;0.10;;;;;;;12.60;67.17;101550.50;4929065;29;20239;-71
2022/05/19 00:22:03;;;;;;;0.10;0.10;;;;;;;12.57;67.88;101543.56;4928888;29;20219;-71
2022/05/19 00:24:30;;;;;;;0.10;0.10;;;;;;;12.55;70.92;101537.50;4929435;29;20214;-71
2022/05/19 00:26:57;;;;;;;0.10;0.10;;;;;;;12.49;66.19;101540.25;4928454;29;20208;-71
2022/05/19 00:29:26;;;;;;;0.10;0.10;;;;;;;12.52;69.96;101531.47;4927136;29;23215;-71
2022/05/19 00:31:52;;;;;;;0.20;0.20;;;;;;;12.45;69.89;101533.34;4929742;29;20202;-71
2022/05/19 00:34:19;;;;;;;0.10;0.10;;;;;;;12.41;72.57;101531.69;4928329;29;20564;-71
2022/05/19 00:36:50;;;;;;;0.10;0.10;;;;;;;12.35;73.31;101526.56;4928724;29;20564;-71
2022/05/19 00:39:17;;;;;;;0.20;0.20;;;;;;;12.29;71.25;101536.28;4927622;29;20679;-71
2022/05/19 00:41:46;;;;;;;0.10;0.10;;;;;;;12.25;72.23;101526.75;4931050;29;20238;-71
2022/05/19 00:44:14;;;;;;;0.10;0.10;;;;;;;12.25;74.97;101521.50;4927829;29;20518;-71
2022/05/19 00:46:51;;;;;;;0.20;0.20;;;;;;;12.19;72.57;101516.41;4909184;29;20199;-71
2022/05/19 00:49:21;;;;;;;0.10;0.10;;;;;;;12.20;74.70;101519.88;4927539;29;20789;-71
2022/05/19 00:51:52;;;;;;;0.00;0.00;;;;;;;12.13;73.51;101519.13;4926703;29;20199;-71
2022/05/19 00:54:22;;;;;;;0.17;0.17;;;;;;;12.10;74.43;101527.00;4927506;29;20220;-71
2022/05/19 00:56:54;;;;;;;0.30;0.30;;;;;;;12.06;74.95;101518.38;4927708;29;20232;-71
2022/05/19 00:59:24;;;;;;;0.10;0.10;;;;;;;12.05;75.49;101527.13;4924430;29;20223;-71
2022/05/19 01:01:55;;;;;;;0.10;0.10;;;;;;;12.01;75.64;101519.34;4925545;29;20674;-71
2022/05/19 01:04:28;;;;;;;0.10;0.10;;;;;;;11.95;76.93;101519.47;4926948;29;20224;-71
2022/05/19 01:06:58;;;;;;;0.20;0.20;;;;;;;11.97;80.73;101515.06;4926169;29;20677;-71
2022/05/19 01:09:25;;;;;;;0.30;0.30;;;;;;;11.88;80.49;101511.69;4925143;29;20244;-71
2022/05/19 01:11:55;;;;;;;0.10;0.10;;;;;;;11.97;87.08;101500.25;4925158;29;20359;-71
2022/05/19 01:14:23;;;;;;;0.10;0.10;;;;;;;11.95;85.82;101498.56;4922241;29;20196;-71
2022/05/19 01:16:50;;;;;;;0.13;0.13;;;;;;;11.93;85.89;101491.59;4924326;29;20209;-71
2022/05/19 01:19:24;;;;;;;1.97;0.30;;;;;;;11.83;78.78;101500.44;4923505;29;20234;-71
2022/05/19 01:21:56;;;;;;;0.10;0.10;;;;;;;11.89;84.26;101491.63;4923502;29;20676;-71
2022/05/19 01:24:29;;;;;;;0.20;0.20;;;;;;;11.80;82.21;101499.66;4925046;29;20208;-71
2022/05/19 01:26:58;;;;;;;0.00;0.00;;;;;;;11.81;87.62;101494.41;4925874;29;20226;-71
2022/05/19 01:29:27;;;;;;;0.43;0.43;;;;;;;11.74;87.83;101491.03;4924370;29;20235;-71
2022/05/19 01:31:56;;;;;;;0.30;0.30;;;;;;;11.75;89.04;101491.91;4926406;29;20203;-71
2022/05/19 01:34:25;;;;;;;0.10;0.10;;;;;;;11.73;89.56;101489.31;4926674;29;20212;-71
2022/05/19 01:36:52;;;;;;;0.20;0.20;;;;;;;11.61;87.56;101486.91;4929087;29;20205;-71
2022/05/19 01:39:27;;;;;;;0.20;0.20;;;;;;;11.60;89.23;101484.31;4912654;29;20626;-71
2022/05/19 01:42:14;;;;;;;0.20;0.20;;;;;;;11.65;92.83;101475.50;4927586;29;20203;-71
2022/05/19 01:44:54;;;;;;;0.20;0.20;;;;;;;11.69;93.44;101476.31;4921601;29;20211;-71
2022/05/19 01:47:29;;;;;;;0.30;0.30;;;;;;;11.55;90.29;101474.78;4925530;29;20203;-71
2022/05/19 01:50:09;;;;;;;0.13;0.13;;;;;;;11.56;92.12;101470.44;4925662;29;20318;-71
2022/05/19 01:52:44;;;;;;;1.50;0.30;;;;;;;11.48;89.68;101474.94;4925351;29;20258;-71
2022/05/19 01:55:18;;;;;;;0.13;0.13;;;;;;;11.50;91.12;101475.75;4925043;29;20215;-71
2022/05/19 01:57:52;;;;;;;0.33;0.30;;;;;;;11.53;93.00;101473.97;4926420;29;20322;-71
2022/05/19 02:00:20;;;;;;;0.03;0.03;;;;;;;11.49;94.36;101477.53;4927275;29;20207;-71
2022/05/19 02:02:53;;;;;;;0.20;0.20;;;;;;;11.41;93.03;101468.09;4926953;29;20684;-71
2022/05/19 02:05:30;;;;;;;0.20;0.20;;;;;;;11.48;97.14;101474.94;4926645;29;20619;-71
2022/05/19 02:07:59;;;;;;;0.10;0.10;;;;;;;11.33;93.86;101478.66;4923999;29;20207;-71
2022/05/19 02:10:29;;;;;;;0.13;0.13;;;;;;;11.35;95.58;101471.66;4909475;29;20211;-71
2022/05/19 02:13:00;;;;;;;0.10;0.10;;;;;;;11.31;96.49;101467.34;4925676;29;20279;-71
2022/05/19 02:15:30;;;;;;;0.10;0.10;;;;;;;11.32;97.51;101466.47;4926317;29;20201;-71
2022/05/19 02:17:57;;;;;;;0.40;0.40;;;;;;;11.21;95.60;101464.03;4926059;29;20226;-71
2022/05/19 02:20:27;;;;;;;0.13;0.13;;;;;;;11.22;96.29;101470.13;4925336;29;20218;-71
2022/05/19 02:22:54;;;;;;;0.20;0.20;;;;;;;11.23;97.91;101461.41;4928002;29;20607;-71
2022/05/19 02:25:26;;;;;;;0.13;0.13;;;;;;;11.18;98.39;101454.50;4928739;29;20204;-71
2022/05/19 02:27:57;;;;;;;0.13;0.13;;;;;;;11.21;99.54;101457.97;4923947;29;20195;-71
2022/05/19 02:30:28;;;;;;;0.10;0.10;;;;;;;11.14;98.24;101460.66;4925120;29;20320;-71
2022/05/19 02:32:55;;;;;;;0.20;0.20;;;;;;;11.15;98.42;101454.56;4927650;29;20699;-71
2022/05/19 02:35:23;;;;;;;0.20;0.20;;;;;;;11.11;97.19;101454.63;4925209;29;20234;-71
2022/05/19 02:37:51;;;;;;;0.20;0.20;;;;;;;11.11;98.66;101455.47;4926791;29;20207;-71
2022/05/19 02:40:20;;;;;;;0.20;0.20;;;;;;;10.99;94.84;101466.97;4925426;29;20211;-71
2022/05/19 02:42:47;;;;;;;0.23;0.23;;;;;;;11.12;98.63;101459.81;4929927;29;20231;-71
2022/05/19 02:45:15;;;;;;;0.20;0.20;;;;;;;11.08;98.28;101462.50;4924872;29;20743;-71
2022/05/19 02:47:43;;;;;;;0.30;0.30;;;;;;;11.06;99.28;101459.91;4926045;29;20196;-71
2022/05/19 02:50:12;;;;;;;0.10;0.10;;;;;;;11.09;100.00;101464.22;4928526;29;20230;-71
2022/05/19 02:52:38;;;;;;;0.20;0.20;;;;;;;10.92;96.75;101472.28;4926739;29;20207;-71
2022/05/19 02:55:06;;;;;;;0.27;0.27;;;;;;;11.00;99.64;101462.63;4923590;29;20211;-72
2022/05/19 02:57:33;;;;;;;0.20;0.20;;;;;;;10.97;100.00;101463.50;4930622;29;20203;-71
2022/05/19 02:59:59;;;;;;;0.20;0.20;;;;;;;10.98;100.00;101467.00;4928893;29;20224;-71
2022/05/19 03:02:26;;;;;;;0.00;0.00;;;;;;;10.88;99.59;101473.22;4930155;29;20215;-71
2022/05/19 03:04:54;;;;;;;0.40;0.20;;;;;;;10.89;100.00;101469.75;4929310;29;20203;-71
2022/05/19 03:07:20;;;;;;;0.20;0.20;;;;;;;10.83;100.00;101472.44;4926984;29;20274;-71
2022/05/19 03:09:47;;;;;;;0.30;0.30;;;;;;;10.86;100.00;101475.84;4930477;29;20238;-71
2022/05/19 03:12:14;;;;;;;0.20;0.20;;;;;;;10.77;100.00;101479.44;4932726;29;20218;-71
2022/05/19 03:14:40;;;;;;;0.20;0.20;;;;;;;10.83;100.00;101477.66;4931138;29;20199;-71
2022/05/19 03:17:07;;;;;;;0.13;0.13;;;;;;;10.90;100.00;101474.91;4930545;29;20207;-71
2022/05/19 03:19:33;;;;;;;0.20;0.20;;;;;;;10.79;100.00;101482.03;4958853;23;20325;-70
2022/05/19 03:22:02;;;;;;;0.30;0.30;;;;;;;10.86;100.00;101481.06;4972801;28;20206;-69
2022/05/19 03:24:28;;;;;;;0.30;0.30;;;;;;;10.80;100.00;101478.56;4972925;28;20225;-69
2022/05/19 03:26:55;;;;;;;0.20;0.20;;;;;;;10.85;100.00;101486.31;4972582;28;20237;-69
2022/05/19 03:29:21;;;;;;;0.30;0.30;;;;;;;10.83;100.00;101482.84;4973234;28;20212;-69
2022/05/19 03:31:47;;;;;;;0.20;0.20;;;;;;;10.76;100.00;101496.00;4967842;28;20670;-70
2022/05/19 03:34:16;;;;;;;0.20;0.20;;;;;;;10.87;100.00;101485.41;4972450;28;20214;-69
2022/05/19 03:36:43;;;;;;;0.20;0.20;;;;;;;10.79;100.00;101489.88;4972418;28;20321;-70
2022/05/19 03:39:12;;;;;;;0.47;0.37;;;;;;;10.77;100.00;101481.19;4969029;28;20217;-69
2022/05/19 03:41:38;;;;;;;0.30;0.30;;;;;;;10.75;100.00;101491.66;4973086;28;20637;-69
2022/05/19 03:44:05;;;;;;;0.47;0.47;;;;;;;10.72;100.00;101494.28;4972841;28;20198;-70
2022/05/19 03:46:31;;;;;;;0.30;0.30;;;;;;;10.72;100.00;101491.69;4973226;28;20233;-70
2022/05/19 03:48:58;;;;;;;0.13;0.13;;;;;;;10.80;100.00;101491.59;4971920;28;20701;-70
2022/05/19 03:51:27;;;;;;;0.30;0.30;;;;;;;10.82;100.00;101497.66;4972368;28;20741;-70
2022/05/19 03:53:54;;;;;;;0.37;0.37;;;;;;;10.89;100.00;101494.09;4970970;28;20213;-70
2022/05/19 03:56:23;;;;;;;0.73;0.33;;;;;;;10.95;100.00;101493.97;4971524;28;20559;-70
2022/05/19 03:58:51;;;;;;;0.43;0.43;;;;;;;11.06;100.00;101501.66;4971546;28;20217;-70
2022/05/19 04:01:19;;;;;;;0.13;0.13;;;;;;;11.14;100.00;101498.94;4971661;28;20201;-69
2022/05/19 04:03:45;;;;;;;0.30;0.30;;;;;;;11.18;98.16;101504.09;4969876;28;20206;-70
2022/05/19 04:06:12;;;;;;;0.40;0.40;;;;;;;11.30;96.69;101504.81;4971477;28;20203;-70
2022/05/19 04:08:41;;;;;;;0.30;0.30;;;;;;;11.36;92.71;101513.41;4968114;28;20207;-70
2022/05/19 04:11:07;;;;;;;0.20;0.20;;;;;;;11.49;92.91;101510.63;4970916;28;20205;-70
2022/05/19 04:13:35;;;;;;;0.17;0.17;;;;;;;11.59;93.30;101513.94;4962651;28;20226;-69
2022/05/19 04:16:02;;;;;;;0.40;0.40;;;;;;;11.68;93.63;101508.53;4967207;28;20213;-69
2022/05/19 04:18:29;;;;;;;0.30;0.30;;;;;;;11.77;93.20;101507.53;4967977;28;20203;-69
2022/05/19 04:20:56;;;;;;;0.10;0.10;;;;;;;11.82;92.91;101509.19;4962736;28;20214;-69
2022/05/19 04:23:23;;;;;;;0.10;0.10;;;;;;;11.90;91.05;101514.28;4968050;28;20221;-69
2022/05/19 04:25:50;;;;;;;0.23;0.23;;;;;;;12.04;90.96;101516.69;4970717;28;20206;-70
2022/05/19 04:28:16;;;;;;;0.10;0.10;;;;;;;12.14;88.76;101510.41;4975733;28;20226;-69
2022/05/19 04:30:44;;;;;;;0.10;0.10;;;;;;;12.20;85.28;101518.13;4970362;28;20196;-70
2022/05/19 04:33:11;;;;;;;0.13;0.13;;;;;;;12.30;82.69;101527.50;4961908;28;20231;-70
2022/05/19 04:35:39;;;;;;;0.10;0.10;;;;;;;12.44;83.61;101526.41;4965335;28;20212;-70
2022/05/19 04:38:07;;;;;;;0.10;0.10;;;;;;;12.50;83.17;101523.66;4962961;28;20610;-70
2022/05/19 04:40:36;;;;;;;0.40;0.30;;;;;;;12.68;85.57;101522.41;4958140;28;20208;-70
2022/05/19 04:43:03;;;;;;;0.27;0.23;;;;;;;12.79;83.48;101525.69;4960957;28;20215;-69
2022/05/19 04:45:29;;;;;;;0.10;0.10;;;;;;;12.91;83.41;101524.56;4961718;28;20204;-69
2022/05/19 04:47:57;;;;;;;0.17;0.10;;;;;;;13.03;82.23;101526.91;4961476;28;20222;-70
2022/05/19 04:50:23;;;;;;;0.00;0.00;;;;;;;13.16;81.81;101531.88;4944292;28;20216;-69
2022/05/19 04:52:52;;;;;;;0.30;0.20;;;;;;;13.26;81.66;101530.75;4961082;28;20194;-69
2022/05/19 04:55:19;;;;;;;0.40;0.30;;;;;;;13.30;80.00;101540.28;4955345;28;20221;-70
2022/05/19 04:57:46;;;;;;;0.00;0.00;;;;;;;13.42;80.16;101533.91;4964898;28;20227;-70
2022/05/19 05:00:14;;;;;;;0.20;0.20;;;;;;;13.50;78.80;101537.22;4964314;28;20227;-70
2022/05/19 05:02:41;;;;;;;0.10;0.10;;;;;;;13.65;80.64;101530.75;4962844;28;20613;-70
2022/05/19 05:05:11;;;;;;;0.43;0.30;;;;;;;13.70;78.71;101541.13;4954035;28;20281;-70
2022/05/19 05:07:37;;;;;;;0.30;0.30;;;;;;;13.79;78.02;101539.13;4956986;28;20218;-70
2022/05/19 05:10:04;;;;;;;0.33;0.10;;;;;;;13.92;74.36;101547.53;4954710;28;20203;-70
2022/05/19 05:12:31;;;;;;;0.10;0.10;;;;;;;14.07;76.32;101551.56;4949616;28;20206;-69
2022/05/19 05:14:57;;;;;;;0.00;0.00;;;;;;;14.16;77.06;101545.19;4942295;28;20222;-70
2022/05/19 05:17:24;;;;;;;0.00;0.00;;;;;;;14.26;74.53;101546.66;4955198;28;20310;-70
2022/05/19 05:19:50;;;;;;;0.20;0.20;;;;;;;14.36;74.97;101544.66;4953695;28;20300;-70
2022/05/19 05:22:18;;;;;;;0.10;0.10;;;;;;;14.48;73.81;101546.09;4938929;28;20203;-70
2022/05/19 05:24:44;;;;;;;0.20;0.20;;;;;;;14.60;75.15;101539.66;4955543;28;20203;-69
2022/05/19 05:27:11;;;;;;;0.00;0.00;;;;;;;14.70;74.28;101546.34;4961091;28;20230;-70
2022/05/19 05:29:39;;;;;;;0.10;0.10;;;;;;;14.80;74.04;101536.47;4955281;28;20204;-69
2022/05/19 05:32:06;;;;;;;0.20;0.20;;;;;;;14.90;74.28;101541.41;4946178;28;20215;-70
2022/05/19 05:34:34;;;;;;;0.20;0.20;;;;;;;14.96;74.47;101540.34;4955238;28;20756;-70
2022/05/19 05:37:00;;;;;;;0.10;0.10;;;;;;;15.04;73.30;101545.34;4964237;28;20298;-70
2022/05/19 05:39:28;;;;;;;0.10;0.10;;;;;;;15.19;72.57;101544.06;4945262;28;20212;-70
2022/05/19 05:41:54;;;;;;;0.20;0.20;;;;;;;15.34;72.08;101551.47;4966661;28;20215;-70
2022/05/19 05:44:21;;;;;;;0.10;0.10;;;;;;;15.49;71.16;101552.72;4965059;28;20230;-70
2022/05/19 05:46:47;;;;;;;0.10;0.10;;;;;;;15.58;70.91;101547.16;4966506;28;20227;-70
2022/05/19 05:49:14;;;;;;;0.10;0.10;;;;;;;15.65;69.90;101555.72;4956329;28;20287;-70
2022/05/19 05:51:40;;;;;;;0.10;0.10;;;;;;;15.78;70.11;101553.59;4956310;28;20209;-70
2022/05/19 05:54:07;;;;;;;0.00;0.00;;;;;;;15.87;70.47;101553.28;4963798;28;20207;-70
2022/05/19 05:56:34;;;;;;;0.23;0.23;;;;;;;16.00;70.47;101554.56;4966699;28;20228;-70
2022/05/19 05:59:01;;;;;;;0.40;0.20;;;;;;;16.13;69.92;101562.03;4960512;28;20563;-71
2022/05/19 06:01:27;;;;;;;0.70;0.13;;;;;;;16.27;69.30;101549.31;4961874;28;20787;-69
2022/05/19 06:03:54;;;;;;;0.20;0.10;;;;;;;16.40;68.88;101560.25;4960143;28;20850;-69
2022/05/19 06:06:21;;;;;;;0.10;0.10;;;;;;;16.45;68.03;101555.66;4959986;28;20305;-70
2022/05/19 06:08:47;;;;;;;0.27;0.27;;;;;;;16.55;66.49;101562.31;4967226;28;20205;-70
2022/05/19 06:11:14;;;;;;;0.00;0.00;;;;;;;16.61;67.76;101569.13;4967664;28;20297;-70
2022/05/19 06:13:43;;;;;;;0.10;0.10;;;;;;;16.69;66.92;101563.56;4967490;28;20639;-70
2022/05/19 06:16:09;;;;;;;0.13;0.13;;;;;;;16.87;66.22;101567.31;4956950;28;20201;-70
2022/05/19 06:18:36;;;;;;;0.20;0.20;;;;;;;17.00;65.82;101560.69;4965252;28;20202;-70
2022/05/19 06:21:03;;;;;;;0.30;0.30;;;;;;;17.16;65.00;101568.88;4967888;28;20244;-70
2022/05/19 06:23:30;;;;;;;0.10;0.10;;;;;;;17.20;63.29;101571.34;4965953;28;20205;-70
2022/05/19 06:25:56;;;;;;;0.23;0.20;;;;;;;17.30;63.07;101568.31;4962814;28;20201;-69
2022/05/19 06:28:26;;;;;;;0.10;0.10;;;;;;;17.35;61.75;101577.75;4954886;28;20205;-70
2022/05/19 06:30:54;;;;;;;0.00;0.00;;;;;;;17.38;61.07;101582.06;4965702;28;20205;-70
2022/05/19 06:33:22;;;;;;;0.20;0.20;;;;;;;17.40;62.41;101586.34;4966611;28;20202;-70
2022/05/19 06:35:49;;;;;;;0.10;0.10;;;;;;;17.53;61.50;101586.72;4966639;28;20308;-70
2022/05/19 06:38:16;;;;;;;0.03;0.03;;;;;;;17.64;62.47;101583.63;4967602;28;20222;-70
2022/05/19 06:40:42;;;;;;;0.23;0.23;;;;;;;17.79;61.96;101584.81;4967443;28;20858;-71
2022/05/19 06:43:09;;;;;;;0.13;0.13;;;;;;;17.91;61.44;101588.75;4965950;28;20706;-70
2022/05/19 06:45:36;;;;;;;0.10;0.10;;;;;;;18.02;61.12;101583.03;4966863;28;20675;-70
2022/05/19 06:48:04;;;;;;;1.20;0.87;;;;;;;18.08;62.27;101583.63;4956259;28;20234;-70
2022/05/19 06:50:31;;;;;;;0.50;0.50;;;;;;;18.20;61.99;101582.22;4956896;28;20206;-70
2022/05/19 06:53:02;;;;;;;0.30;0.30;;;;;;;18.29;61.80;101583.63;4963231;28;20289;-70
2022/05/19 06:55:29;;;;;;;0.10;0.10;;;;;;;18.48;61.28;101576.59;4964549;28;20557;-70
2022/05/19 06:57:56;;;;;;;0.20;0.20;;;;;;;18.64;61.85;101574.13;4964117;28;20694;-70
2022/05/19 07:00:27;;;;;;;0.20;0.20;;;;;;;18.64;59.75;101579.41;4959550;28;20213;-70
2022/05/19 07:02:56;;;;;;;0.20;0.20;;;;;;;18.68;59.13;101580.13;4963708;28;20206;-69
2022/05/19 07:05:27;;;;;;;0.00;0.00;;;;;;;18.87;59.09;101582.84;4965415;28;20570;-69
2022/05/19 07:07:54;;;;;;;0.10;0.10;;;;;;;18.96;59.13;101578.91;4957093;28;20254;-70
2022/05/19 07:10:23;;;;;;;0.27;0.27;;;;;;;19.01;58.50;101588.34;4963358;28;20205;-70
2022/05/19 07:12:50;;;;;;;0.20;0.20;;;;;;;19.10;57.53;101577.38;4966850;28;20206;-70
2022/05/19 07:15:19;;;;;;;0.10;0.10;;;;;;;19.29;57.26;101582.66;4964495;28;20229;-70
2022/05/19 07:17:46;;;;;;;0.83;0.53;;;;;;;19.35;57.55;101570.03;4961667;28;20245;-70
2022/05/19 07:22:57;;;;;;;0.20;0.20;;;;;;;19.45;55.92;101569.53;4967180;28;20202;-69
2022/05/19 07:25:26;;;;;;;0.30;0.30;;;;;;;19.53;56.92;101563.03;4966393;28;20209;-70
2022/05/19 07:27:52;;;;;;;0.33;0.33;;;;;;;19.44;55.20;101569.63;4963598;28;20880;-70
2022/05/19 07:30:19;;;;;;;0.10;0.10;;;;;;;19.54;55.49;101560.31;4963552;28;20572;-70
2022/05/19 07:32:45;;;;;;;0.20;0.20;;;;;;;19.68;54.46;101568.41;4960503;28;20202;-70
2022/05/19 07:35:15;;;;;;;0.30;0.30;;;;;;;19.76;54.44;101560.13;4966702;28;20232;-70
2022/05/19 07:37:42;;;;;;;0.23;0.20;;;;;;;19.86;53.50;101550.78;4964397;28;20218;-70
2022/05/19 07:40:11;;;;;;;0.30;0.30;;;;;;;19.94;53.89;101557.47;4943978;28;20211;-70
2022/05/19 07:42:37;;;;;;;0.10;0.10;;;;;;;20.04;52.62;101550.78;4965068;28;20202;-71
2022/05/19 07:45:05;;;;;;;0.43;0.33;;;;;;;20.07;54.60;101542.69;4968861;28;20767;-70
2022/05/19 07:47:32;;;;;;;0.20;0.20;;;;;;;20.28;53.68;101545.13;4969582;28;20353;-70
2022/05/19 07:49:58;;;;;;;0.37;0.37;;;;;;;20.41;50.96;101543.56;4970252;28;20203;-70
2022/05/19 07:52:26;;;;;;;0.40;0.40;;;;;;;20.57;51.78;101541.81;4968517;28;20217;-70
2022/05/19 07:54:53;;;;;;;0.40;0.40;;;;;;;20.75;50.54;101539.13;4961020;28;20710;-70
2022/05/19 07:57:22;;;;;;;0.20;0.10;;;;;;;20.79;50.93;101527.41;4968325;28;20300;-70
2022/05/19 07:59:48;;;;;;;0.30;0.30;;;;;;;20.84;49.93;101529.81;4964584;28;20199;-69
2022/05/19 08:02:15;;;;;;;0.10;0.10;;;;;;;20.89;50.17;101531.28;4954311;28;20209;-70
2022/05/19 08:04:41;;;;;;;0.10;0.10;;;;;;;20.84;50.62;101528.03;4969721;28;20209;-70
2022/05/19 08:07:08;;;;;;;0.37;0.23;;;;;;;20.94;50.16;101523.94;4968570;28;20224;-70
2022/05/19 08:17:48;;;;;;;0.20;0.17;;;;;;;21.29;47.98;101517.59;4963143;28;20218;-70
2022/05/19 08:20:16;;;;;;;1.87;0.20;;;;;;;21.33;48.75;101522.59;4963842;28;20206;-70
2022/05/19 08:22:42;;;;;;;0.30;0.30;;;;;;;21.56;47.57;101525.78;4964992;28;20210;-70
2022/05/19 08:25:09;;;;;;;0.43;0.20;;;;;;;21.52;48.32;101511.84;4964787;28;20205;-70
2022/05/19 08:27:36;;;;;;;0.20;0.20;;;;;;;21.67;49.68;101511.88;4964442;28;20232;-70
2022/05/19 08:30:03;;;;;;;0.10;0.10;;;;;;;21.79;48.04;101505.84;4969219;28;20206;-70
2022/05/19 08:32:30;;;;;;;0.20;0.20;;;;;;;21.79;47.00;101505.00;4963761;28;20225;-69
2022/05/19 08:34:57;;;;;;;0.17;0.13;;;;;;;21.73;46.50;101501.75;4955733;28;20224;-70
2022/05/19 08:37:25;;;;;;;0.30;0.30;;;;;;;21.82;46.17;101505.66;4965302;28;20232;-71
2022/05/19 08:39:51;;;;;;;0.20;0.20;;;;;;;21.93;44.37;101511.19;4967163;28;20326;-70
2022/05/19 08:42:19;;;;;;;0.47;0.47;;;;;;;22.01;45.05;101505.41;4959701;28;20198;-70
2022/05/19 08:44:52;;;;;;;0.17;0.17;;;;;;;22.07;44.78;101497.06;4965451;28;20229;-70
2022/05/19 08:47:23;;;;;;;0.13;0.13;;;;;;;22.10;45.71;101490.72;4965160;28;20600;-70
2022/05/19 08:49:54;;;;;;;0.77;0.47;;;;;;;22.22;47.37;101494.44;4960713;28;20198;-70
2022/05/19 08:52:23;;;;;;;0.20;0.20;;;;;;;22.30;45.17;101489.53;4967962;28;20202;-70
2022/05/19 08:54:52;;;;;;;0.40;0.30;;;;;;;22.52;43.59;101491.72;4956789;28;20926;-70
2022/05/19 08:57:23;;;;;;;0.33;0.30;;;;;;;22.64;42.74;101488.28;4962942;28;20229;-70
2022/05/19 09:00:01;;;;;;;0.20;0.20;;;;;;;22.66;43.95;101490.84;4956959;28;20194;-70
2022/05/19 09:02:35;;;;;;;0.27;0.20;;;;;;;22.67;43.88;101488.09;4958175;28;20203;-70
2022/05/19 09:05:26;;;;;;;1.03;0.20;;;;;;;22.94;42.96;101473.13;4948352;28;20194;-70
2022/05/19 09:08:03;;;;;;;0.10;0.10;;;;;;;22.98;45.58;101472.81;4958656;28;20986;-70
2022/05/19 09:10:44;;;;;;;0.35;0.35;;;;;;;23.08;43.27;101472.22;4961813;28;20217;-70
2022/05/19 09:13:22;;;;;;;0.20;0.20;;;;;;;23.17;43.47;101464.50;4966140;28;20222;-70
2022/05/19 09:15:52;;;;;;;0.30;0.20;;;;;;;23.37;41.79;101472.97;4966705;28;20221;-70
2022/05/19 09:18:30;;;;;;;0.85;0.40;;;;;;;23.39;43.30;101455.09;4963671;28;20703;-70
2022/05/19 09:20:57;;;;;;;0.22;0.22;;;;;;;23.42;42.79;101460.22;4964644;28;20202;-70
2022/05/19 09:23:24;;;;;;;0.30;0.30;;;;;;;23.42;42.40;101466.38;4965686;28;20201;-71
2022/05/19 09:25:55;;;;;;;0.32;0.32;;;;;;;23.51;40.90;101464.91;4962952;28;20233;-70
2022/05/19 09:28:21;;;;;;;0.35;0.35;;;;;;;23.71;41.42;101463.56;4953321;28;20710;-69
2022/05/19 09:30:52;;;;;;;0.20;0.20;;;;;;;23.77;42.40;101462.28;4967513;28;20205;-70
2022/05/19 09:33:21;;;;;;;0.10;0.10;;;;;;;23.84;41.93;101470.75;4967296;28;20217;-70
2022/05/19 09:35:51;;;;;;;0.20;0.20;;;;;;;23.83;42.52;101466.38;4963379;28;20217;-70
2022/05/19 09:38:26;;;;;;;0.20;0.20;;;;;;;23.81;41.08;101472.63;4965476;28;20230;-70
2022/05/19 09:40:59;;;;;;;0.40;0.17;;;;;;;23.95;40.63;101470.84;4960426;28;20208;-70
2022/05/19 09:43:29;;;;;;;0.20;0.20;;;;;;;24.10;41.42;101469.78;4962456;28;20210;-70
2022/05/19 09:46:04;;;;;;;0.20;0.20;;;;;;;24.21;41.13;101468.19;4966022;28;20201;-70
2022/05/19 09:48:34;;;;;;;0.52;0.30;;;;;;;24.24;40.73;101463.50;4964197;28;20212;-69
2022/05/19 09:51:03;;;;;;;0.50;0.40;;;;;;;24.34;40.50;101466.34;4965656;28;20236;-72
2022/05/19 09:53:38;;;;;;;0.22;0.22;;;;;;;24.45;42.26;101458.44;4965393;28;20284;-72
2022/05/19 09:56:09;;;;;;;0.13;0.13;;;;;;;24.48;42.06;101457.34;4959361;28;20234;-72
2022/05/19 09:58:41;;;;;;;0.20;0.20;;;;;;;24.37;41.19;101450.97;4956426;28;20195;-71
2022/05/19 10:01:18;;;;;;;0.30;0.30;;;;;;;24.33;41.56;101462.00;4966601;28;20300;-71
2022/05/19 10:03:50;;;;;;;0.10;0.10;;;;;;;24.49;41.67;101454.59;4948855;28;20205;-72
2022/05/19 10:06:18;;;;;;;0.55;0.55;;;;;;;24.47;40.93;101448.53;4966165;28;20204;-71
2022/05/19 10:08:46;;;;;;;0.40;0.40;;;;;;;24.72;41.52;101449.44;4965850;28;20209;-72
2022/05/19 10:11:24;;;;;;;0.32;0.32;;;;;;;24.80;40.03;101443.53;4965061;28;20206;-72
2022/05/19 10:13:58;;;;;;;0.43;0.43;;;;;;;24.84;41.24;101435.22;4963477;28;20190;-72
2022/05/19 10:16:37;;;;;;;0.20;0.20;;;;;;;24.79;39.93;101442.69;4966461;28;20236;-72
2022/05/19 10:19:16;;;;;;;0.20;0.20;;;;;;;24.88;41.04;101443.84;4965299;28;20210;-72
2022/05/19 10:21:59;;;;;;;0.13;0.13;;;;;;;24.97;40.16;101439.63;4963563;28;20284;-71
2022/05/19 10:24:35;;;;;;;0.70;0.40;;;;;;;24.89;39.55;101437.50;4956903;28;20565;-73
2022/05/19 10:33:00;;;;;;;0.22;0.17;;;;;;;25.25;38.53;101425.09;4959276;28;20297;-73
2022/05/19 10:35:42;;;;;;;0.68;0.30;;;;;;;25.32;39.43;101421.84;4961590;28;20217;-72
2022/05/19 10:38:32;;;;;;;0.20;0.20;;;;;;;25.24;39.07;101416.22;4965143;28;20707;-72
2022/05/19 10:41:07;;;;;;;0.40;0.30;;;;;;;25.27;38.62;101420.50;4959661;28;20206;-72
2022/05/19 10:43:47;;;;;;;0.30;0.30;;;;;;;25.24;39.44;101410.00;4955467;28;20206;-71
2022/05/19 10:46:15;;;;;;;1.05;0.43;;;;;;;25.07;38.79;101408.63;4962108;28;20212;-70
2022/05/19 10:49:04;;;;;;;0.00;0.00;;;;;;;25.27;41.07;101402.66;4966116;28;20209;-71
2022/05/19 10:51:45;;;;;;;0.20;0.20;;;;;;;25.27;38.86;101415.16;4961980;28;20201;-72
2022/05/19 10:54:25;;;;;;;0.10;0.10;;;;;;;25.44;37.77;101405.88;4965300;28;20190;-72
2022/05/19 10:57:26;;;;;;;0.52;0.30;;;;;;;25.63;39.27;101399.97;4959871;28;20229;-73
2022/05/19 11:00:07;;;;;;;0.35;0.20;;;;;;;25.82;36.68;101394.88;4958697;28;20194;-72
2022/05/19 11:03:06;;;;;;;0.28;0.28;;;;;;;25.83;37.36;101396.56;4965300;28;20284;-72
2022/05/19 11:05:55;;;;;;;0.20;0.20;;;;;;;25.88;37.75;101386.38;4963799;28;20221;-70
2022/05/19 11:08:34;;;;;;;0.20;0.20;;;;;;;26.14;38.25;101380.81;4960304;28;20223;-73
2022/05/19 11:11:13;;;;;;;0.17;0.17;;;;;;;26.00;39.12;101373.06;4958932;28;20194;-70
2022/05/19 11:13:50;;;;;;;0.80;0.63;;;;;;;25.88;38.95;101374.84;4965682;28;20299;-73
2022/05/19 11:16:26;;;;;;;0.43;0.30;;;;;;;25.99;37.44;101382.03;4963883;28;20226;-73
2022/05/19 11:18:57;;;;;;;0.05;0.05;;;;;;;26.18;38.30;101368.91;4952182;28;20210;-70
2022/05/19 11:21:36;;;;;;;0.20;0.20;;;;;;;26.14;37.26;101366.59;4960953;28;20268;-73
2022/05/19 11:24:10;;;;;;;0.20;0.20;;;;;;;26.12;37.37;101368.53;4969634;28;20209;-72
2022/05/19 11:26:42;;;;;;;0.38;0.38;;;;;;;26.18;36.32;101366.22;4968290;28;20593;-73
2022/05/19 11:29:18;;;;;;;0.65;0.28;;;;;;;26.16;38.28;101356.66;4966695;28;20552;-72
2022/05/19 11:31:49;;;;;;;0.50;0.38;;;;;;;26.22;37.73;101354.31;4964474;28;20202;-71
2022/05/19 11:34:21;;;;;;;0.32;0.32;;;;;;;26.35;37.36;101351.50;4961608;28;20201;-71
2022/05/19 11:36:56;;;;;;;0.40;0.20;;;;;;;26.51;36.82;101366.28;4967385;28;20621;-72
2022/05/19 11:39:29;;;;;;;0.50;0.50;;;;;;;26.59;35.69;101347.78;4969104;28;20689;-71
2022/05/19 11:42:01;;;;;;;0.30;0.30;;;;;;;26.67;37.09;101350.72;4966950;28;20212;-73
2022/05/19 11:44:32;;;;;;;0.40;0.30;;;;;;;26.37;36.72;101354.91;4968537;28;20209;-70
2022/05/19 11:47:03;;;;;;;0.30;0.30;;;;;;;26.63;37.95;101339.41;4969720;28;20225;-72
2022/05/19 11:55:19;;;;;;;0.30;0.30;;;;;;;26.73;37.34;101331.47;4958013;28;20285;-73
2022/05/19 11:57:55;;;;;;;0.55;0.20;;;;;;;26.83;37.35;101327.03;4959413;28;21040;-73
2022/05/19 12:00:26;;;;;;;0.10;0.10;;;;;;;26.71;35.92;101321.88;4965066;28;20563;-73